Latest Weather Observations for Nambour

IDQ60901

Issued at 10:01 pm EST Monday 27 April 2015 (issued every 10 minutes, with the page automatically refreshed every 10 minutes)

About weather observations | Map of Brisbane area stations | Latest observations for Brisbane area | Other Formats
Station Details ID: 040988 Name: NAMBOUR DAFF - HILLSIDE Lat: -26.64 Lon: 152.94 Height: 53.24 m
Data from the previous 72 hours. | See also: Recent months at Nambour
Date/Time
EST
Tmp

°C
App
Tmp
°C
Dew
Point
°C
Rel
Hum
%
Delta-T

°C
Wind Press
QNH
hPa
Press
MSL
hPa
Rain
since
9 am
mm
Dir
 
Spd
km/h
Gust
km/h
Spd
kts
Gust
kts
27/10:00pm 13.3 13.7 11.2 87 1.1 CALM 0 0 0 0 1019.8 1019.6 0.0
27/09:30pm 13.8 14.2 11.3 85 1.3 CALM 0 0 0 0 1019.7 1019.5 0.0
27/09:00pm 13.9 14.3 11.2 84 1.4 CALM 0 0 0 0 1019.4 1019.2 0.0
27/08:30pm 14.2 14.5 11.0 81 1.7 CALM 0 0 0 0 1019.3 1019.1 0.0
27/08:00pm 14.8 15.2 11.4 80 1.8 CALM 0 0 0 0 1019.2 1019.0 0.0
27/07:30pm 15.1 15.6 11.7 80 1.8 CALM 0 0 0 0 1019.1 1018.9 0.0
27/07:00pm 15.5 16.0 11.5 77 2.2 CALM 0 0 0 0 1018.6 1018.4 0.0
27/06:30pm 16.6 17.4 12.4 76 2.3 CALM 0 0 0 0 1018.1 1017.9 0.0
27/06:00pm 17.2 17.7 11.7 70 3.0 CALM 0 0 0 0 1017.8 1017.6 0.0
27/05:30pm 18.4 18.5 11.5 64 3.8 SSW 2 4 1 2 1017.5 1017.3 0.0
27/05:00pm 20.9 21.2 11.0 53 5.4 CALM 0 4 0 2 1017.0 1016.8 0.0
27/04:30pm 21.6 20.5 10.7 50 6.0 E 7 13 4 7 1016.8 1016.6 0.0
27/04:00pm 23.3 22.0 9.3 41 7.6 E 6 11 3 6 1016.3 1016.1 0.0
27/03:30pm 23.9 23.3 9.1 39 8.0 SE 2 9 1 5 1016.0 1015.8 0.0
27/03:00pm 23.9 22.5 8.7 38 8.2 E 6 13 3 7 1016.0 1015.8 0.0
27/02:30pm 23.7 21.8 8.9 39 8.0 E 9 17 5 9 1015.9 1015.7 0.0
27/02:00pm 23.9 22.2 8.3 37 8.3 ESE 7 13 4 7 1015.9 1015.7 0.0
27/01:30pm 24.1 22.3 9.3 39 8.0 ESE 9 17 5 9 1016.0 1015.8 0.0
27/01:00pm 23.9 22.5 8.7 38 8.2 SE 6 13 3 7 1016.1 1015.9 0.0
27/12:30pm 23.3 21.9 9.0 40 7.7 SE 6 11 3 6 1016.4 1016.2 0.0
27/12:00pm 23.1 21.2 9.1 41 7.5 E 9 15 5 8 1016.8 1016.6 0.0
27/11:30am 23.1 21.6 9.1 41 7.5 E 7 13 4 7 1017.2 1017.0 0.0
27/11:00am 22.6 20.9 8.3 40 7.6 E 7 11 4 6 1017.5 1017.3 0.0
27/10:30am 22.6 21.0 8.7 41 7.4 SSW 7 13 4 7 1017.9 1017.7 0.0
27/10:00am 22.3 21.3 8.8 42 7.2 SE 4 9 2 5 1018.0 1017.8 0.0
27/09:30am 21.6 20.0 7.8 41 7.2 S 6 9 3 5 1018.0 1017.8 0.0
27/09:00am 21.4 20.3 8.3 43 6.9 S 4 13 2 7 1018.0 1017.8 0.0
27/08:30am 20.0 18.1 7.4 44 6.5 SW 7 11 4 6 1017.9 1017.7 0.0
27/08:00am 19.2 18.4 8.2 49 5.7 NE 2 6 1 3 1017.6 1017.4 0.0
27/07:30am 15.9 15.7 9.1 64 3.5 CALM 0 2 0 1 1017.4 1017.2 0.0
27/07:00am 14.3 13.5 8.0 66 3.1 ESE 2 6 1 3 1017.1 1016.9 0.0
27/06:30am 13.3 11.8 6.9 65 3.1 WSW 4 7 2 4 1016.9 1016.7 0.0
27/06:00am 14.9 12.6 5.7 54 4.4 SW 7 9 4 5 1016.5 1016.3 0.0
27/05:30am 14.9 12.6 5.7 54 4.4 WSW 7 9 4 5 1016.3 1016.1 0.0
27/05:00am 14.8 12.8 6.1 56 4.2 WSW 6 9 3 5 1015.8 1015.6 0.0
27/04:30am 15.3 13.0 5.5 52 4.7 SW 7 11 4 6 1015.6 1015.4 0.0
27/04:00am 14.9 13.5 5.7 54 4.4 WSW 2 6 1 3 1015.4 1015.2 0.0
27/03:30am 15.6 13.4 5.5 51 4.8 SW 6 11 3 6 1015.2 1015.0 0.0
27/03:00am 15.9 13.1 5.2 49 5.1 SW 9 20 5 11 1015.3 1015.1 0.0
27/02:30am 16.0 12.5 5.3 49 5.1 SW 13 24 7 13 1015.3 1015.1 0.0
27/02:00am 13.4 11.7 5.8 60 3.6 SSE 4 6 2 3 1015.6 1015.4 0.0
27/01:30am 14.7 13.0 5.8 55 4.2 WSW 4 7 2 4 1015.5 1015.3 0.0
27/01:00am 16.3 14.4 5.0 47 5.4 WSW 4 9 2 5 1015.7 1015.5 0.0
27/12:30am 16.3 14.0 5.0 47 5.4 WSW 6 11 3 6 1015.4 1015.2 0.0
27/12:00am 16.6 14.2 4.3 44 5.8 WSW 6 15 3 8 1015.3 1015.1 0.0
 
Date/Time
EST
Tmp

°C
App
Tmp
°C
Dew
Point
°C
Rel
Hum
%
Delta-T

°C
Wind Press
QNH
hPa
Press
MSL
hPa
Rain
since
9 am
mm
Dir
 
Spd
km/h
Gust
km/h
Spd
kts
Gust
kts
26/11:30pm 16.4 14.3 4.1 44 5.7 E 4 9 2 5 1015.5 1015.3 0.0
26/11:00pm 16.9 14.5 4.3 43 5.9 WSW 6 11 3 6 1015.5 1015.3 0.0
26/10:30pm 16.9 13.9 4.3 43 5.9 ESE 9 22 5 12 1015.6 1015.4 0.0
26/10:00pm 17.2 14.7 3.8 41 6.3 SSW 6 11 3 6 1015.0 1014.8 0.0
26/09:30pm 17.5 14.5 4.1 41 6.3 SW 9 22 5 12 1015.4 1015.2 0.0
26/09:00pm 17.0 14.6 4.3 43 6.0 SW 6 13 3 7 1016.0 1015.8 0.0
26/08:30pm 17.3 14.8 3.9 41 6.3 SW 6 13 3 7 1015.9 1015.7 0.0
26/08:00pm 17.6 14.9 3.9 40 6.4 SW 7 20 4 11 1015.8 1015.6 0.0
26/07:30pm 17.6 15.0 3.1 38 6.7 SW 6 15 3 8 1015.6 1015.4 0.0
26/07:00pm 17.8 15.0 2.9 37 6.9 WSW 7 11 4 6 1015.0 1014.8 0.0
26/06:30pm 17.8 15.1 2.9 37 6.9 SW 6 9 3 5 1014.7 1014.5 0.0
26/06:00pm 18.4 16.4 2.3 34 7.4 SW 2 9 1 5 1014.1 1013.9 0.0
26/05:30pm 19.0 17.3 2.0 32 7.8 CALM 0 9 0 5 1013.6 1013.4 0.0
26/05:00pm 20.8 18.7 1.6 28 8.8 N 2 6 1 3 1013.0 1012.8 0.0
26/04:30pm 22.0 18.6 1.6 26 9.5 W 9 17 5 9 1012.4 1012.2 0.0
26/04:00pm 22.7 19.3 1.7 25 9.8 WSW 9 22 5 12 1012.0 1011.8 0.0
26/03:30pm 23.0 19.3 2.5 26 9.8 WSW 11 20 6 11 1011.4 1011.2 0.0
26/03:00pm 23.3 19.5 1.6 24 10.2 SW 11 20 6 11 1011.2 1011.0 0.0
26/02:30pm 23.3 19.5 1.6 24 10.2 WSW 11 22 6 12 1011.1 1010.9 0.0
26/02:00pm 23.8 20.8 2.0 24 10.4 SW 7 19 4 10 1011.1 1010.9 0.0
26/01:30pm 23.6 20.4 3.0 26 9.9 WSW 9 24 5 13 1010.7 1010.5 0.0
26/01:00pm 23.6 20.3 2.4 25 10.1 W 9 17 5 9 1010.7 1010.5 0.0
26/12:30pm 23.1 19.0 2.0 25 10.0 W 13 28 7 15 1010.7 1010.5 0.0
26/12:00pm 23.1 19.5 3.1 27 9.6 WSW 11 24 6 13 1010.9 1010.7 0.0
26/11:30am 22.1 19.2 2.8 28 9.2 NW 7 17 4 9 1011.4 1011.2 0.0
26/11:00am 21.8 18.6 3.0 29 9.0 WSW 9 22 5 12 1012.1 1011.9 0.0
26/10:30am 21.4 18.3 3.6 31 8.6 WSW 9 15 5 8 1012.6 1012.4 0.0
26/10:00am 21.0 18.3 3.7 32 8.3 SW 7 24 4 13 1012.7 1012.5 0.0
26/09:30am 20.0 16.0 2.8 32 8.1 WSW 13 24 7 13 1013.0 1012.8 0.0
26/09:00am 19.8 16.2 3.1 33 7.9 SW 11 22 6 12 1013.2 1013.0 0.0
26/08:30am 19.4 16.2 3.2 34 7.6 SW 9 19 5 10 1013.1 1012.9 0.0
26/08:00am 19.1 15.6 3.3 35 7.4 WSW 11 28 6 15 1012.9 1012.7 0.0
26/07:30am 18.8 14.7 2.2 33 7.6 WSW 13 32 7 17 1012.5 1012.3 0.0
26/07:00am 18.5 15.8 2.8 35 7.3 SE 6 26 3 14 1012.2 1012.0 0.0
26/06:30am 17.9 15.8 1.8 34 7.3 E 2 4 1 2 1011.9 1011.7 0.0
26/06:00am 18.5 14.5 0.6 30 7.9 SW 11 19 6 10 1011.4 1011.2 0.0
26/05:30am 19.1 14.7 0.2 28 8.3 WSW 13 33 7 18 1010.9 1010.7 0.0
26/05:00am 19.9 15.1 0.4 27 8.7 WSW 15 30 8 16 1010.5 1010.3 0.0
26/04:30am 20.4 16.6 1.8 29 8.6 WSW 11 28 6 15 1010.2 1010.0 0.0
26/04:00am 20.7 16.6 2.5 30 8.5 WSW 13 24 7 13 1009.8 1009.6 0.0
26/03:30am 20.9 17.3 3.2 31 8.4 WSW 11 20 6 11 1009.6 1009.4 0.0
26/03:00am 21.1 18.2 4.6 34 8.1 WSW 9 19 5 10 1009.6 1009.4 0.0
26/02:30am 21.5 18.2 4.6 33 8.3 WSW 11 24 6 13 1009.7 1009.5 0.0
26/02:00am 22.0 20.0 6.3 36 8.0 W 6 13 3 7 1009.7 1009.5 0.0
26/01:30am 22.2 20.1 6.8 37 7.9 WSW 7 13 4 7 1009.7 1009.5 0.0
26/01:00am 21.8 20.4 9.0 44 6.8 WNW 6 9 3 5 1009.6 1009.4 0.0
26/12:30am 21.5 21.0 13.7 61 4.5 WNW 9 15 5 8 1009.8 1009.6 0.0
26/12:00am 18.6 19.7 13.5 72 2.9 CALM 0 4 0 2 1009.6 1009.4 0.0
 
Date/Time
EST
Tmp

°C
App
Tmp
°C
Dew
Point
°C
Rel
Hum
%
Delta-T

°C
Wind Press
QNH
hPa
Press
MSL
hPa
Rain
since
9 am
mm
Dir
 
Spd
km/h
Gust
km/h
Spd
kts
Gust
kts
25/11:30pm 18.2 19.4 13.7 75 2.6 CALM 0 2 0 1 1009.7 1009.5 0.0
25/11:00pm 19.6 20.8 13.8 69 3.3 CALM 0 6 0 3 1009.9 1009.7 0.0
25/10:30pm 18.3 19.7 14.4 78 2.3 CALM 0 2 0 1 1010.1 1009.9 0.0
25/10:00pm 17.4 18.8 14.3 82 1.8 CALM 0 0 0 0 1010.4 1010.2 0.0
25/09:30pm 18.1 19.7 14.8 81 1.9 CALM 0 0 0 0 1010.6 1010.4 0.0
25/09:00pm 19.0 20.7 15.1 78 2.3 CALM 0 0 0 0 1010.7 1010.5 0.0
25/08:30pm 18.7 20.3 15.0 79 2.2 CALM 0 0 0 0 1010.6 1010.4 0.0
25/08:00pm 18.8 20.4 14.9 78 2.3 CALM 0 0 0 0 1010.4 1010.2 0.0
25/07:30pm 19.0 20.4 14.5 75 2.6 CALM 0 0 0 0 1010.1 1009.9 0.0
25/07:00pm 19.4 21.1 15.1 76 2.5 CALM 0 0 0 0 1009.8 1009.6 0.0
25/06:30pm 20.0 21.4 14.4 70 3.3 CALM 0 0 0 0 1009.4 1009.2 0.0
25/06:00pm 21.0 22.7 15.1 69 3.5 CALM 0 0 0 0 1009.0 1008.8 0.0
25/05:30pm 22.9 24.2 14.2 58 5.1 CALM 0 0 0 0 1008.8 1008.6 0.0
25/05:00pm 24.6 25.0 13.8 51 6.4 ENE 4 9 2 5 1008.6 1008.4 0.0
25/04:30pm 25.7 25.9 14.2 49 6.8 E 6 9 3 5 1008.2 1008.1 0.0
25/04:00pm 26.6 26.1 13.7 45 7.7 ENE 9 15 5 8 1008.0 1007.9 0.0
25/03:30pm 27.0 25.9 13.0 42 8.2 ENE 11 15 6 8 1007.8 1007.7 0.0
25/03:00pm 27.4 26.4 13.4 42 8.3 E 11 17 6 9 1007.9 1007.8 0.0
25/02:30pm 26.7 25.7 12.4 41 8.3 ENE 9 17 5 9 1007.9 1007.8 0.0
25/02:00pm 28.6 27.0 8.8 29 10.9 NW 7 11 4 6 1008.0 1007.9 0.0
25/01:30pm 28.8 27.3 9.0 29 11.0 NW 7 11 4 6 1008.2 1008.1 0.0
25/01:00pm 28.6 27.1 9.3 30 10.8 NW 7 13 4 7 1008.6 1008.4 0.0
25/12:30pm 28.5 26.8 8.2 28 11.1 WNW 7 11 4 6 1009.0 1008.8 0.0
25/12:00pm 28.5 27.1 8.7 29 10.9 NW 6 11 3 6 1009.4 1009.2 0.0
25/11:30am 28.3 26.8 8.6 29 10.8 WNW 6 11 3 6 1009.9 1009.7 0.0
25/11:00am 27.5 27.5 12.3 39 8.8 ENE 4 7 2 4 1010.4 1010.2 0.0
25/10:30am 26.8 26.8 12.5 41 8.3 E 4 9 2 5 1010.8 1010.6 0.0
25/10:00am 25.8 26.5 15.5 53 6.3 NE 6 7 3 4 1011.1 1010.9 0.0
25/09:30am 24.8 25.7 15.1 54 5.8 ENE 4 6 2 3 1011.2 1011.0 0.0
25/09:00am 22.8 23.6 14.9 61 4.7 ENE 4 6 2 3 1011.3 1011.1 0.0
25/08:30am 22.0 23.5 14.6 63 4.4 CALM 0 2 0 1 1011.3 1011.1 0.0
25/08:00am 19.8 21.1 14.0 69 3.4 CALM 0 0 0 0 1011.2 1011.0 0.0
25/07:30am 17.7 19.3 14.8 83 1.7 CALM 0 0 0 0 1011.1 1010.9 0.0
25/07:00am 15.5 16.5 13.3 87 1.2 CALM 0 0 0 0 1010.9 1010.7 0.0
25/06:30am 14.7 15.9 13.9 95 0.4 CALM 0 0 0 0 1010.6 1010.4 0.0
25/06:00am 14.3 15.3 13.3 94 0.6 CALM 0 0 0 0 1010.2 1010.0 0.0
25/05:30am 14.7 15.9 13.7 94 0.6 CALM 0 0 0 0 1010.0 1009.8 0.0
25/05:00am 14.6 15.7 13.5 93 0.6 CALM 0 0 0 0 1009.8 1009.6 0.0
25/04:30am 14.7 15.7 13.2 91 0.8 CALM 0 0 0 0 1009.7 1009.5 0.0
25/04:00am 15.0 16.2 13.7 92 0.7 CALM 0 0 0 0 1009.6 1009.4 0.0
25/03:30am 15.1 16.2 13.6 91 0.8 CALM 0 0 0 0 1009.7 1009.5 0.0
25/03:00am 15.9 17.5 14.9 94 0.6 CALM 0 6 0 3 1009.6 1009.4 0.0
25/02:30am 15.3 16.5 13.7 90 0.9 CALM 0 0 0 0 1009.9 1009.7 0.0
25/02:00am 15.8 17.3 14.7 93 0.6 CALM 0 0 0 0 1009.9 1009.7 0.0
25/01:30am 15.6 16.9 14.1 91 0.9 CALM 0 0 0 0 1010.1 1009.9 0.0
25/01:00am 15.9 17.3 14.4 91 0.9 CALM 0 4 0 2 1010.2 1010.0 0.0
25/12:30am 16.6 18.2 14.8 89 1.0 CALM 0 4 0 2 1010.5 1010.3 0.0
25/12:00am 17.8 18.7 14.1 79 2.1 W 2 4 1 2 1010.5 1010.3 0.0
 
Date/Time
EST
Tmp

°C
App
Tmp
°C
Dew
Point
°C
Rel
Hum
%
Delta-T

°C
Wind Press
QNH
hPa
Press
MSL
hPa
Rain
since
9 am
mm
Dir
 
Spd
km/h
Gust
km/h
Spd
kts
Gust
kts
24/11:30pm 18.8 20.5 16.2 85 1.6 WNW 2 4 1 2 1010.7 1010.5 0.0
24/11:00pm 16.6 17.9 14.2 86 1.4 CALM 0 0 0 0 1010.7 1010.5 0.0
24/10:30pm 17.0 18.5 14.6 86 1.4 CALM 0 0 0 0 1010.6 1010.4 0.0

Latest Capital City Observations: Canberra | Sydney | Melbourne | Brisbane | Adelaide | Perth | Hobart | Darwin

Other Formats:

Comma delimited format used in spreadsheet applications
http://www.bom.gov.au/fwo/IDQ60901/IDQ60901.95572.axf

JavaScript Object Notation format (JSON) in row-major order
http://www.bom.gov.au/fwo/IDQ60901/IDQ60901.95572.json